sensor_id;sensor_type;location;lat;lon;timestamp;temperature;humidity
60868;DHT22;46702;48.370;10.794;2023-03-11T00:01:52;3.00;99.90
60868;DHT22;46702;48.370;10.794;2023-03-11T00:04:18;2.90;99.90
60868;DHT22;46702;48.370;10.794;2023-03-11T00:06:44;2.90;99.90
60868;DHT22;46702;48.370;10.794;2023-03-11T00:09:09;2.90;99.90
60868;DHT22;46702;48.370;10.794;2023-03-11T00:11:35;2.90;99.90
60868;DHT22;46702;48.370;10.794;2023-03-11T00:14:00;2.80;99.90
60868;DHT22;46702;48.370;10.794;2023-03-11T00:16:26;2.80;99.90
60868;DHT22;46702;48.370;10.794;2023-03-11T00:18:52;2.80;99.90
60868;DHT22;46702;48.370;10.794;2023-03-11T00:21:18;2.80;99.90
60868;DHT22;46702;48.370;10.794;2023-03-11T00:23:45;2.80;99.90
60868;DHT22;46702;48.370;10.794;2023-03-11T00:26:10;2.80;99.90
60868;DHT22;46702;48.370;10.794;2023-03-11T00:28:36;2.90;99.90
60868;DHT22;46702;48.370;10.794;2023-03-11T00:31:03;2.80;99.90
60868;DHT22;46702;48.370;10.794;2023-03-11T00:33:29;2.80;99.90
60868;DHT22;46702;48.370;10.794;2023-03-11T00:35:54;2.80;99.90
60868;DHT22;46702;48.370;10.794;2023-03-11T00:38:20;2.80;99.90
60868;DHT22;46702;48.370;10.794;2023-03-11T00:40:47;2.70;99.90
60868;DHT22;46702;48.370;10.794;2023-03-11T00:43:14;2.60;99.90
60868;DHT22;46702;48.370;10.794;2023-03-11T00:45:40;2.50;99.90
60868;DHT22;46702;48.370;10.794;2023-03-11T00:48:06;2.50;99.90
60868;DHT22;46702;48.370;10.794;2023-03-11T00:50:34;2.50;99.90
60868;DHT22;46702;48.370;10.794;2023-03-11T00:53:00;2.50;98.90
60868;DHT22;46702;48.370;10.794;2023-03-11T00:55:30;2.50;99.90
60868;DHT22;46702;48.370;10.794;2023-03-11T00:57:58;2.50;99.90
60868;DHT22;46702;48.370;10.794;2023-03-11T01:00:25;2.40;98.70
60868;DHT22;46702;48.370;10.794;2023-03-11T01:02:52;2.40;99.90
60868;DHT22;46702;48.370;10.794;2023-03-11T01:05:20;2.40;99.20
60868;DHT22;46702;48.370;10.794;2023-03-11T01:07:46;2.30;99.90
60868;DHT22;46702;48.370;10.794;2023-03-11T01:10:12;2.30;99.90
60868;DHT22;46702;48.370;10.794;2023-03-11T01:12:38;2.20;99.90
60868;DHT22;46702;48.370;10.794;2023-03-11T01:15:04;2.20;99.90
60868;DHT22;46702;48.370;10.794;2023-03-11T01:17:30;2.20;99.90
60868;DHT22;46702;48.370;10.794;2023-03-11T01:19:55;2.10;99.90
60868;DHT22;46702;48.370;10.794;2023-03-11T01:22:21;2.10;99.90
60868;DHT22;46702;48.370;10.794;2023-03-11T01:24:47;2.10;99.90
60868;DHT22;46702;48.370;10.794;2023-03-11T01:27:12;2.00;99.90
60868;DHT22;46702;48.370;10.794;2023-03-11T01:29:38;2.00;99.90
60868;DHT22;46702;48.370;10.794;2023-03-11T01:32:04;2.10;99.90
60868;DHT22;46702;48.370;10.794;2023-03-11T01:34:31;2.00;99.90
60868;DHT22;46702;48.370;10.794;2023-03-11T01:37:00;2.00;99.90
60868;DHT22;46702;48.370;10.794;2023-03-11T01:39:26;1.90;99.90
60868;DHT22;46702;48.370;10.794;2023-03-11T01:41:52;1.80;99.90
60868;DHT22;46702;48.370;10.794;2023-03-11T01:44:18;1.90;99.90
60868;DHT22;46702;48.370;10.794;2023-03-11T01:49:20;1.80;99.90
60868;DHT22;46702;48.370;10.794;2023-03-11T01:51:48;1.70;99.90
60868;DHT22;46702;48.370;10.794;2023-03-11T01:56:51;1.70;99.90
60868;DHT22;46702;48.370;10.794;2023-03-11T01:59:20;1.70;99.90
60868;DHT22;46702;48.370;10.794;2023-03-11T02:02:27;1.60;99.90
60868;DHT22;46702;48.370;10.794;2023-03-11T02:04:54;1.60;99.90
60868;DHT22;46702;48.370;10.794;2023-03-11T02:07:20;1.70;99.90
60868;DHT22;46702;48.370;10.794;2023-03-11T02:09:46;1.70;99.90
60868;DHT22;46702;48.370;10.794;2023-03-11T02:12:13;1.70;99.90
60868;DHT22;46702;48.370;10.794;2023-03-11T02:14:44;1.70;99.90
60868;DHT22;46702;48.370;10.794;2023-03-11T02:17:11;1.60;99.90
60868;DHT22;46702;48.370;10.794;2023-03-11T02:19:58;1.70;99.90
60868;DHT22;46702;48.370;10.794;2023-03-11T02:22:27;1.70;99.90
60868;DHT22;46702;48.370;10.794;2023-03-11T02:25:10;1.70;99.90
60868;DHT22;46702;48.370;10.794;2023-03-11T02:27:40;1.70;99.90
60868;DHT22;46702;48.370;10.794;2023-03-11T02:30:10;1.60;99.90
60868;DHT22;46702;48.370;10.794;2023-03-11T02:32:37;1.60;99.90
60868;DHT22;46702;48.370;10.794;2023-03-11T02:35:03;1.60;99.90
60868;DHT22;46702;48.370;10.794;2023-03-11T02:37:29;1.50;99.90
60868;DHT22;46702;48.370;10.794;2023-03-11T02:42:46;1.50;99.90
60868;DHT22;46702;48.370;10.794;2023-03-11T02:45:15;1.50;99.90
60868;DHT22;46702;48.370;10.794;2023-03-11T02:47:42;1.40;99.90
60868;DHT22;46702;48.370;10.794;2023-03-11T02:50:10;1.40;99.90
60868;DHT22;46702;48.370;10.794;2023-03-11T02:52:36;1.40;99.90
60868;DHT22;46702;48.370;10.794;2023-03-11T02:55:03;1.60;99.90
60868;DHT22;46702;48.370;10.794;2023-03-11T02:57:28;1.50;99.90
60868;DHT22;46702;48.370;10.794;2023-03-11T02:59:54;1.50;99.90
60868;DHT22;46702;48.370;10.794;2023-03-11T03:02:20;1.50;99.90
60868;DHT22;46702;48.370;10.794;2023-03-11T03:04:45;1.60;99.90
60868;DHT22;46702;48.370;10.794;2023-03-11T03:07:11;1.60;99.90
60868;DHT22;46702;48.370;10.794;2023-03-11T03:09:37;1.50;99.90
60868;DHT22;46702;48.370;10.794;2023-03-11T03:12:03;1.50;99.90
60868;DHT22;46702;48.370;10.794;2023-03-11T03:14:29;1.50;99.90
60868;DHT22;46702;48.370;10.794;2023-03-11T03:16:55;1.50;99.90
60868;DHT22;46702;48.370;10.794;2023-03-11T03:19:21;1.50;99.90
60868;DHT22;46702;48.370;10.794;2023-03-11T03:21:46;1.50;99.90
60868;DHT22;46702;48.370;10.794;2023-03-11T03:24:12;1.50;99.90
60868;DHT22;46702;48.370;10.794;2023-03-11T03:26:38;1.50;99.90
60868;DHT22;46702;48.370;10.794;2023-03-11T03:29:04;1.50;99.90
60868;DHT22;46702;48.370;10.794;2023-03-11T03:31:30;1.60;99.90
60868;DHT22;46702;48.370;10.794;2023-03-11T03:33:55;1.60;99.90
60868;DHT22;46702;48.370;10.794;2023-03-11T03:36:21;1.60;99.90
60868;DHT22;46702;48.370;10.794;2023-03-11T03:38:47;1.60;99.90
60868;DHT22;46702;48.370;10.794;2023-03-11T03:41:13;1.60;99.90
60868;DHT22;46702;48.370;10.794;2023-03-11T03:43:42;1.60;99.90
60868;DHT22;46702;48.370;10.794;2023-03-11T03:46:08;1.60;99.90
60868;DHT22;46702;48.370;10.794;2023-03-11T03:48:33;1.70;99.90
60868;DHT22;46702;48.370;10.794;2023-03-11T03:51:03;1.70;99.90
60868;DHT22;46702;48.370;10.794;2023-03-11T03:53:30;1.70;99.90
60868;DHT22;46702;48.370;10.794;2023-03-11T03:55:55;1.70;99.90
60868;DHT22;46702;48.370;10.794;2023-03-11T03:58:21;1.70;99.90
60868;DHT22;46702;48.370;10.794;2023-03-11T04:00:46;1.70;99.90
60868;DHT22;46702;48.370;10.794;2023-03-11T04:03:12;1.70;99.90
60868;DHT22;46702;48.370;10.794;2023-03-11T04:05:37;1.70;99.90
60868;DHT22;46702;48.370;10.794;2023-03-11T04:08:03;1.60;99.90
60868;DHT22;46702;48.370;10.794;2023-03-11T04:10:29;1.60;99.90
60868;DHT22;46702;48.370;10.794;2023-03-11T04:12:54;1.50;99.90
60868;DHT22;46702;48.370;10.794;2023-03-11T04:15:20;1.50;99.90
60868;DHT22;46702;48.370;10.794;2023-03-11T04:17:46;1.40;99.90
60868;DHT22;46702;48.370;10.794;2023-03-11T04:20:11;1.40;99.90
60868;DHT22;46702;48.370;10.794;2023-03-11T04:22:37;1.30;99.90
60868;DHT22;46702;48.370;10.794;2023-03-11T04:25:02;1.30;99.90
60868;DHT22;46702;48.370;10.794;2023-03-11T04:27:28;1.20;99.90
60868;DHT22;46702;48.370;10.794;2023-03-11T04:29:54;1.20;99.90
60868;DHT22;46702;48.370;10.794;2023-03-11T04:32:19;1.20;99.90
60868;DHT22;46702;48.370;10.794;2023-03-11T04:34:48;1.10;99.90
60868;DHT22;46702;48.370;10.794;2023-03-11T04:37:13;1.10;99.90
60868;DHT22;46702;48.370;10.794;2023-03-11T04:39:39;1.10;99.90
60868;DHT22;46702;48.370;10.794;2023-03-11T04:42:05;1.10;99.90
60868;DHT22;46702;48.370;10.794;2023-03-11T04:44:30;1.00;99.90
60868;DHT22;46702;48.370;10.794;2023-03-11T04:46:56;0.90;99.90
60868;DHT22;46702;48.370;10.794;2023-03-11T04:49:21;0.80;99.90
60868;DHT22;46702;48.370;10.794;2023-03-11T04:51:47;0.80;99.90
60868;DHT22;46702;48.370;10.794;2023-03-11T04:54:13;0.80;99.90
60868;DHT22;46702;48.370;10.794;2023-03-11T04:56:38;0.80;99.90
60868;DHT22;46702;48.370;10.794;2023-03-11T04:59:04;0.70;99.90
60868;DHT22;46702;48.370;10.794;2023-03-11T05:01:29;0.70;99.90
60868;DHT22;46702;48.370;10.794;2023-03-11T05:03:55;0.70;99.90
60868;DHT22;46702;48.370;10.794;2023-03-11T05:06:21;0.60;99.90
60868;DHT22;46702;48.370;10.794;2023-03-11T05:08:46;0.60;99.90
60868;DHT22;46702;48.370;10.794;2023-03-11T05:11:12;0.60;99.90
60868;DHT22;46702;48.370;10.794;2023-03-11T05:13:37;0.60;99.90
60868;DHT22;46702;48.370;10.794;2023-03-11T05:16:03;0.50;99.90
60868;DHT22;46702;48.370;10.794;2023-03-11T05:18:29;0.40;99.90
60868;DHT22;46702;48.370;10.794;2023-03-11T05:20:56;0.50;99.90
60868;DHT22;46702;48.370;10.794;2023-03-11T05:23:22;0.40;99.90
60868;DHT22;46702;48.370;10.794;2023-03-11T05:25:48;0.40;99.90
60868;DHT22;46702;48.370;10.794;2023-03-11T05:28:13;0.50;99.90
60868;DHT22;46702;48.370;10.794;2023-03-11T05:30:39;0.50;99.90
60868;DHT22;46702;48.370;10.794;2023-03-11T05:33:04;0.50;99.90
60868;DHT22;46702;48.370;10.794;2023-03-11T05:35:30;0.40;99.90
60868;DHT22;46702;48.370;10.794;2023-03-11T05:37:56;0.40;99.90
60868;DHT22;46702;48.370;10.794;2023-03-11T05:40:21;0.40;99.90
60868;DHT22;46702;48.370;10.794;2023-03-11T05:42:47;0.30;99.90
60868;DHT22;46702;48.370;10.794;2023-03-11T05:45:13;0.40;99.90
60868;DHT22;46702;48.370;10.794;2023-03-11T05:47:38;0.40;99.90
60868;DHT22;46702;48.370;10.794;2023-03-11T05:50:07;0.40;99.90
60868;DHT22;46702;48.370;10.794;2023-03-11T05:52:32;0.30;99.90
60868;DHT22;46702;48.370;10.794;2023-03-11T05:54:58;0.30;99.90
60868;DHT22;46702;48.370;10.794;2023-03-11T05:57:24;0.30;99.90
60868;DHT22;46702;48.370;10.794;2023-03-11T05:59:49;0.20;99.90
60868;DHT22;46702;48.370;10.794;2023-03-11T06:02:15;0.20;99.90
60868;DHT22;46702;48.370;10.794;2023-03-11T06:04:41;0.20;99.90
60868;DHT22;46702;48.370;10.794;2023-03-11T06:07:06;0.30;99.90
60868;DHT22;46702;48.370;10.794;2023-03-11T06:09:32;0.20;99.90
60868;DHT22;46702;48.370;10.794;2023-03-11T06:12:02;0.20;99.90
60868;DHT22;46702;48.370;10.794;2023-03-11T06:14:27;0.30;99.90
60868;DHT22;46702;48.370;10.794;2023-03-11T06:16:56;0.30;99.90
60868;DHT22;46702;48.370;10.794;2023-03-11T06:19:22;0.30;99.90
60868;DHT22;46702;48.370;10.794;2023-03-11T06:21:47;0.30;99.90
60868;DHT22;46702;48.370;10.794;2023-03-11T06:24:13;0.30;99.90
60868;DHT22;46702;48.370;10.794;2023-03-11T06:26:39;0.20;99.90
60868;DHT22;46702;48.370;10.794;2023-03-11T06:29:08;0.30;99.90
60868;DHT22;46702;48.370;10.794;2023-03-11T06:31:36;0.30;99.90
60868;DHT22;46702;48.370;10.794;2023-03-11T06:34:03;0.30;99.90
60868;DHT22;46702;48.370;10.794;2023-03-11T06:36:31;0.20;99.90
60868;DHT22;46702;48.370;10.794;2023-03-11T06:38:56;0.20;99.90
60868;DHT22;46702;48.370;10.794;2023-03-11T06:41:22;0.20;99.90
60868;DHT22;46702;48.370;10.794;2023-03-11T06:43:48;0.20;99.90
60868;DHT22;46702;48.370;10.794;2023-03-11T06:46:21;0.10;99.90
60868;DHT22;46702;48.370;10.794;2023-03-11T06:48:47;0.10;99.90
60868;DHT22;46702;48.370;10.794;2023-03-11T06:51:17;0.10;99.90
60868;DHT22;46702;48.370;10.794;2023-03-11T06:53:43;0.10;99.90
60868;DHT22;46702;48.370;10.794;2023-03-11T06:56:10;0.10;99.90
60868;DHT22;46702;48.370;10.794;2023-03-11T06:58:38;0.20;99.90
60868;DHT22;46702;48.370;10.794;2023-03-11T07:01:12;0.20;99.90
60868;DHT22;46702;48.370;10.794;2023-03-11T07:03:38;0.30;99.90
60868;DHT22;46702;48.370;10.794;2023-03-11T07:06:05;0.30;99.90
60868;DHT22;46702;48.370;10.794;2023-03-11T07:08:31;0.20;99.90
60868;DHT22;46702;48.370;10.794;2023-03-11T07:11:09;0.20;99.90
60868;DHT22;46702;48.370;10.794;2023-03-11T07:13:36;0.20;99.90
60868;DHT22;46702;48.370;10.794;2023-03-11T07:16:07;0.20;99.90
60868;DHT22;46702;48.370;10.794;2023-03-11T07:18:34;0.20;99.90
60868;DHT22;46702;48.370;10.794;2023-03-11T07:21:05;0.20;99.90
60868;DHT22;46702;48.370;10.794;2023-03-11T07:23:31;0.20;99.90
60868;DHT22;46702;48.370;10.794;2023-03-11T07:25:57;0.30;99.90
60868;DHT22;46702;48.370;10.794;2023-03-11T07:28:23;0.40;99.90
60868;DHT22;46702;48.370;10.794;2023-03-11T07:30:50;0.40;99.90
60868;DHT22;46702;48.370;10.794;2023-03-11T07:33:16;0.50;99.90
60868;DHT22;46702;48.370;10.794;2023-03-11T07:35:42;0.60;99.90
60868;DHT22;46702;48.370;10.794;2023-03-11T07:38:08;0.60;99.90
60868;DHT22;46702;48.370;10.794;2023-03-11T07:40:34;0.80;99.90
60868;DHT22;46702;48.370;10.794;2023-03-11T07:43:00;0.80;99.90
60868;DHT22;46702;48.370;10.794;2023-03-11T07:45:25;0.90;99.90
60868;DHT22;46702;48.370;10.794;2023-03-11T07:47:51;1.00;99.90
60868;DHT22;46702;48.370;10.794;2023-03-11T07:50:17;1.20;99.90
60868;DHT22;46702;48.370;10.794;2023-03-11T07:52:43;1.40;99.90
60868;DHT22;46702;48.370;10.794;2023-03-11T07:55:09;1.50;99.90
60868;DHT22;46702;48.370;10.794;2023-03-11T07:57:34;1.60;99.90
60868;DHT22;46702;48.370;10.794;2023-03-11T08:00:00;1.50;98.60
60868;DHT22;46702;48.370;10.794;2023-03-11T08:02:26;1.40;99.80
60868;DHT22;46702;48.370;10.794;2023-03-11T08:04:54;1.40;99.90
60868;DHT22;46702;48.370;10.794;2023-03-11T08:07:20;1.30;97.60
60868;DHT22;46702;48.370;10.794;2023-03-11T08:09:45;1.40;99.90
60868;DHT22;46702;48.370;10.794;2023-03-11T08:12:11;1.60;99.90
60868;DHT22;46702;48.370;10.794;2023-03-11T08:14:37;1.60;98.80
60868;DHT22;46702;48.370;10.794;2023-03-11T08:17:04;1.60;99.90
60868;DHT22;46702;48.370;10.794;2023-03-11T08:19:30;1.50;94.90
60868;DHT22;46702;48.370;10.794;2023-03-11T08:21:55;1.50;98.20
60868;DHT22;46702;48.370;10.794;2023-03-11T08:24:21;1.60;99.90
60868;DHT22;46702;48.370;10.794;2023-03-11T08:26:47;1.60;97.70
60868;DHT22;46702;48.370;10.794;2023-03-11T08:29:12;1.60;98.70
60868;DHT22;46702;48.370;10.794;2023-03-11T08:31:38;1.70;98.10
60868;DHT22;46702;48.370;10.794;2023-03-11T08:34:07;1.80;97.70
60868;DHT22;46702;48.370;10.794;2023-03-11T08:36:33;1.80;97.60
60868;DHT22;46702;48.370;10.794;2023-03-11T08:38:59;1.90;97.40
60868;DHT22;46702;48.370;10.794;2023-03-11T08:41:25;2.00;98.50
60868;DHT22;46702;48.370;10.794;2023-03-11T08:43:51;1.90;96.80
60868;DHT22;46702;48.370;10.794;2023-03-11T08:46:37;1.80;96.10
60868;DHT22;46702;48.370;10.794;2023-03-11T08:49:04;1.80;98.20
60868;DHT22;46702;48.370;10.794;2023-03-11T08:51:32;1.90;94.20
60868;DHT22;46702;48.370;10.794;2023-03-11T08:53:58;1.90;95.90
60868;DHT22;46702;48.370;10.794;2023-03-11T08:56:24;2.10;97.50
60868;DHT22;46702;48.370;10.794;2023-03-11T08:58:50;2.10;93.30
60868;DHT22;46702;48.370;10.794;2023-03-11T09:01:16;2.10;96.60
60868;DHT22;46702;48.370;10.794;2023-03-11T09:03:42;2.30;95.80
60868;DHT22;46702;48.370;10.794;2023-03-11T09:06:10;2.30;96.10
60868;DHT22;46702;48.370;10.794;2023-03-11T09:08:38;2.30;94.60
60868;DHT22;46702;48.370;10.794;2023-03-11T09:11:03;2.20;92.90
60868;DHT22;46702;48.370;10.794;2023-03-11T09:13:30;2.10;92.50
60868;DHT22;46702;48.370;10.794;2023-03-11T09:15:56;2.00;95.10
60868;DHT22;46702;48.370;10.794;2023-03-11T09:18:21;2.00;95.90
60868;DHT22;46702;48.370;10.794;2023-03-11T09:20:47;2.00;93.40
60868;DHT22;46702;48.370;10.794;2023-03-11T09:23:14;2.30;97.30
60868;DHT22;46702;48.370;10.794;2023-03-11T09:25:40;2.60;99.80
60868;DHT22;46702;48.370;10.794;2023-03-11T09:28:06;2.70;94.40
60868;DHT22;46702;48.370;10.794;2023-03-11T09:30:32;2.90;96.60
60868;DHT22;46702;48.370;10.794;2023-03-11T09:32:57;3.10;92.70
60868;DHT22;46702;48.370;10.794;2023-03-11T09:35:23;3.50;94.40
60868;DHT22;46702;48.370;10.794;2023-03-11T09:37:49;3.70;94.40
60868;DHT22;46702;48.370;10.794;2023-03-11T09:40:19;3.80;92.80
60868;DHT22;46702;48.370;10.794;2023-03-11T09:42:56;3.00;89.70
60868;DHT22;46702;48.370;10.794;2023-03-11T09:45:31;2.60;90.40
60868;DHT22;46702;48.370;10.794;2023-03-11T09:51:11;3.00;93.90
60868;DHT22;46702;48.370;10.794;2023-03-11T09:53:44;3.40;96.00
60868;DHT22;46702;48.370;10.794;2023-03-11T09:56:20;3.30;90.50
60868;DHT22;46702;48.370;10.794;2023-03-11T09:58:51;3.20;86.20
60868;DHT22;46702;48.370;10.794;2023-03-11T10:01:24;3.10;93.10
60868;DHT22;46702;48.370;10.794;2023-03-11T10:03:54;2.80;91.10
60868;DHT22;46702;48.370;10.794;2023-03-11T10:06:27;2.40;90.00
60868;DHT22;46702;48.370;10.794;2023-03-11T10:12:09;2.80;82.40
60868;DHT22;46702;48.370;10.794;2023-03-11T10:25:41;2.80;93.80
60868;DHT22;46702;48.370;10.794;2023-03-11T10:28:13;3.10;92.00
60868;DHT22;46702;48.370;10.794;2023-03-11T10:30:42;3.10;91.00
60868;DHT22;46702;48.370;10.794;2023-03-11T10:33:32;2.90;76.50
60868;DHT22;46702;48.370;10.794;2023-03-11T10:36:05;3.10;86.90
60868;DHT22;46702;48.370;10.794;2023-03-11T10:38:41;3.30;90.30
60868;DHT22;46702;48.370;10.794;2023-03-11T10:41:16;3.30;86.20
60868;DHT22;46702;48.370;10.794;2023-03-11T10:44:03;3.30;82.70
60868;DHT22;46702;48.370;10.794;2023-03-11T10:46:30;3.30;80.50
60868;DHT22;46702;48.370;10.794;2023-03-11T10:48:56;3.20;77.30
60868;DHT22;46702;48.370;10.794;2023-03-11T10:51:26;3.20;81.40
60868;DHT22;46702;48.370;10.794;2023-03-11T10:53:57;3.30;79.30
60868;DHT22;46702;48.370;10.794;2023-03-11T10:56:37;3.20;82.90
60868;DHT22;46702;48.370;10.794;2023-03-11T10:59:17;3.30;84.60
60868;DHT22;46702;48.370;10.794;2023-03-11T11:01:57;3.30;82.70
60868;DHT22;46702;48.370;10.794;2023-03-11T11:04:36;3.40;86.90
60868;DHT22;46702;48.370;10.794;2023-03-11T11:07:28;3.60;79.10
60868;DHT22;46702;48.370;10.794;2023-03-11T11:10:14;3.80;79.60
60868;DHT22;46702;48.370;10.794;2023-03-11T11:15:19;3.50;71.30
60868;DHT22;46702;48.370;10.794;2023-03-11T11:17:46;3.80;75.60
60868;DHT22;46702;48.370;10.794;2023-03-11T11:20:17;4.10;73.70
60868;DHT22;46702;48.370;10.794;2023-03-11T11:22:54;4.00;65.10
60868;DHT22;46702;48.370;10.794;2023-03-11T11:28:15;4.40;77.50
60868;DHT22;46702;48.370;10.794;2023-03-11T11:31:02;4.60;70.00
60868;DHT22;46702;48.370;10.794;2023-03-11T11:33:37;4.70;72.00
60868;DHT22;46702;48.370;10.794;2023-03-11T11:36:04;5.00;68.90
60868;DHT22;46702;48.370;10.794;2023-03-11T11:38:32;5.40;72.10
60868;DHT22;46702;48.370;10.794;2023-03-11T11:41:02;5.20;71.40
60868;DHT22;46702;48.370;10.794;2023-03-11T11:43:53;5.20;67.10
60868;DHT22;46702;48.370;10.794;2023-03-11T11:46:39;4.90;68.60
60868;DHT22;46702;48.370;10.794;2023-03-11T11:49:23;4.30;65.50
60868;DHT22;46702;48.370;10.794;2023-03-11T11:52:13;4.10;75.10
60868;DHT22;46702;48.370;10.794;2023-03-11T11:54:45;3.90;68.50
60868;DHT22;46702;48.370;10.794;2023-03-11T11:57:17;4.20;80.40
60868;DHT22;46702;48.370;10.794;2023-03-11T11:59:44;4.40;79.00
60868;DHT22;46702;48.370;10.794;2023-03-11T12:18:41;4.20;67.80
60868;DHT22;46702;48.370;10.794;2023-03-11T12:21:25;4.30;74.50
60868;DHT22;46702;48.370;10.794;2023-03-11T12:24:19;4.30;71.60
60868;DHT22;46702;48.370;10.794;2023-03-11T12:26:50;4.20;70.10
60868;DHT22;46702;48.370;10.794;2023-03-11T12:29:26;4.30;73.10
60868;DHT22;46702;48.370;10.794;2023-03-11T12:31:53;4.30;72.70
60868;DHT22;46702;48.370;10.794;2023-03-11T12:34:21;4.30;75.70
60868;DHT22;46702;48.370;10.794;2023-03-11T12:36:48;4.40;75.80
60868;DHT22;46702;48.370;10.794;2023-03-11T12:39:27;4.40;70.90
60868;DHT22;46702;48.370;10.794;2023-03-11T12:44:39;4.20;75.80
60868;DHT22;46702;48.370;10.794;2023-03-11T12:49:37;4.30;72.30
60868;DHT22;46702;48.370;10.794;2023-03-11T12:54:40;4.20;72.30
60868;DHT22;46702;48.370;10.794;2023-03-11T13:05:38;4.00;72.60
60868;DHT22;46702;48.370;10.794;2023-03-11T13:10:42;3.70;77.30
60868;DHT22;46702;48.370;10.794;2023-03-11T13:15:56;4.10;71.70
60868;DHT22;46702;48.370;10.794;2023-03-11T13:18:22;4.10;81.70
60868;DHT22;46702;48.370;10.794;2023-03-11T13:20:53;4.20;78.00
60868;DHT22;46702;48.370;10.794;2023-03-11T13:28:23;4.30;70.70
60868;DHT22;46702;48.370;10.794;2023-03-11T13:33:57;4.30;64.20
60868;DHT22;46702;48.370;10.794;2023-03-11T13:39:35;4.30;66.80
60868;DHT22;46702;48.370;10.794;2023-03-11T13:42:07;4.50;69.40
60868;DHT22;46702;48.370;10.794;2023-03-11T13:44:36;4.60;67.50
60868;DHT22;46702;48.370;10.794;2023-03-11T13:47:12;4.70;69.70
60868;DHT22;46702;48.370;10.794;2023-03-11T13:52:13;5.00;64.60
60868;DHT22;46702;48.370;10.794;2023-03-11T13:54:58;5.10;67.00
60868;DHT22;46702;48.370;10.794;2023-03-11T13:57:52;5.20;65.50
60868;DHT22;46702;48.370;10.794;2023-03-11T14:00:20;4.90;66.00
60868;DHT22;46702;48.370;10.794;2023-03-11T14:03:11;5.00;68.70
60868;DHT22;46702;48.370;10.794;2023-03-11T14:05:43;4.80;64.10
60868;DHT22;46702;48.370;10.794;2023-03-11T14:08:27;4.90;65.40
60868;DHT22;46702;48.370;10.794;2023-03-11T14:13:49;4.50;62.90
60868;DHT22;46702;48.370;10.794;2023-03-11T14:16:30;4.50;64.10
60868;DHT22;46702;48.370;10.794;2023-03-11T14:19:04;4.60;68.70
60868;DHT22;46702;48.370;10.794;2023-03-11T14:21:35;4.60;67.10
60868;DHT22;46702;48.370;10.794;2023-03-11T14:24:02;4.60;68.30
60868;DHT22;46702;48.370;10.794;2023-03-11T14:26:29;4.70;68.30
60868;DHT22;46702;48.370;10.794;2023-03-11T14:28:58;4.90;69.10
60868;DHT22;46702;48.370;10.794;2023-03-11T14:31:30;5.10;66.00
60868;DHT22;46702;48.370;10.794;2023-03-11T14:34:02;5.20;67.70
60868;DHT22;46702;48.370;10.794;2023-03-11T14:36:45;5.20;62.20
60868;DHT22;46702;48.370;10.794;2023-03-11T14:39:29;5.30;62.30
60868;DHT22;46702;48.370;10.794;2023-03-11T14:44:46;5.40;70.00
60868;DHT22;46702;48.370;10.794;2023-03-11T14:50:00;5.30;71.80
60868;DHT22;46702;48.370;10.794;2023-03-11T14:52:39;5.00;73.80
60868;DHT22;46702;48.370;10.794;2023-03-11T14:55:15;5.00;69.30
60868;DHT22;46702;48.370;10.794;2023-03-11T14:57:43;5.10;69.30
60868;DHT22;46702;48.370;10.794;2023-03-11T15:00:28;5.10;69.10
60868;DHT22;46702;48.370;10.794;2023-03-11T15:05:48;5.20;65.00
60868;DHT22;46702;48.370;10.794;2023-03-11T15:08:20;5.10;60.60
60868;DHT22;46702;48.370;10.794;2023-03-11T15:11:07;5.10;61.10
60868;DHT22;46702;48.370;10.794;2023-03-11T15:13:34;5.10;58.00
60868;DHT22;46702;48.370;10.794;2023-03-11T15:16:02;5.10;63.40
60868;DHT22;46702;48.370;10.794;2023-03-11T15:18:31;5.10;63.20
60868;DHT22;46702;48.370;10.794;2023-03-11T15:21:13;5.00;59.60
60868;DHT22;46702;48.370;10.794;2023-03-11T15:23:44;5.00;61.70
60868;DHT22;46702;48.370;10.794;2023-03-11T15:26:22;5.00;63.50
60868;DHT22;46702;48.370;10.794;2023-03-11T15:28:57;5.00;64.10
60868;DHT22;46702;48.370;10.794;2023-03-11T15:33:49;5.10;62.50
60868;DHT22;46702;48.370;10.794;2023-03-11T15:41:36;4.90;62.80
60868;DHT22;46702;48.370;10.794;2023-03-11T15:44:02;4.90;62.70
60868;DHT22;46702;48.370;10.794;2023-03-11T15:46:32;4.90;62.80
60868;DHT22;46702;48.370;10.794;2023-03-11T15:48:58;4.80;63.80
60868;DHT22;46702;48.370;10.794;2023-03-11T15:51:24;4.90;67.80
60868;DHT22;46702;48.370;10.794;2023-03-11T15:53:49;4.80;70.90
60868;DHT22;46702;48.370;10.794;2023-03-11T15:56:23;4.70;72.20
60868;DHT22;46702;48.370;10.794;2023-03-11T15:58:49;4.60;70.00
60868;DHT22;46702;48.370;10.794;2023-03-11T16:01:14;4.50;71.70
60868;DHT22;46702;48.370;10.794;2023-03-11T16:03:40;4.40;73.50
60868;DHT22;46702;48.370;10.794;2023-03-11T16:06:05;4.40;76.30
60868;DHT22;46702;48.370;10.794;2023-03-11T16:08:31;4.20;77.30
60868;DHT22;46702;48.370;10.794;2023-03-11T16:10:57;4.20;82.60
60868;DHT22;46702;48.370;10.794;2023-03-11T16:13:22;4.00;86.60
60868;DHT22;46702;48.370;10.794;2023-03-11T16:15:48;3.80;89.70
60868;DHT22;46702;48.370;10.794;2023-03-11T16:18:14;3.70;86.60
60868;DHT22;46702;48.370;10.794;2023-03-11T16:20:46;3.70;88.40
60868;DHT22;46702;48.370;10.794;2023-03-11T16:23:19;3.60;92.80
60868;DHT22;46702;48.370;10.794;2023-03-11T16:25:46;3.50;93.70
60868;DHT22;46702;48.370;10.794;2023-03-11T16:28:14;3.60;92.70
60868;DHT22;46702;48.370;10.794;2023-03-11T16:30:40;3.50;94.50
60868;DHT22;46702;48.370;10.794;2023-03-11T16:33:05;3.50;93.40
60868;DHT22;46702;48.370;10.794;2023-03-11T16:35:31;3.50;93.60
60868;DHT22;46702;48.370;10.794;2023-03-11T16:37:57;3.50;95.90
60868;DHT22;46702;48.370;10.794;2023-03-11T16:40:24;3.40;96.30
60868;DHT22;46702;48.370;10.794;2023-03-11T16:42:54;3.50;96.40
60868;DHT22;46702;48.370;10.794;2023-03-11T16:45:20;3.40;94.60
60868;DHT22;46702;48.370;10.794;2023-03-11T16:47:46;3.40;95.20
60868;DHT22;46702;48.370;10.794;2023-03-11T16:50:12;3.40;94.90
60868;DHT22;46702;48.370;10.794;2023-03-11T16:52:38;3.30;95.70
60868;DHT22;46702;48.370;10.794;2023-03-11T16:55:03;3.30;95.50
60868;DHT22;46702;48.370;10.794;2023-03-11T16:57:29;3.30;95.30
60868;DHT22;46702;48.370;10.794;2023-03-11T16:59:55;3.30;96.40
60868;DHT22;46702;48.370;10.794;2023-03-11T17:02:21;3.20;95.70
60868;DHT22;46702;48.370;10.794;2023-03-11T17:04:46;3.10;97.10
60868;DHT22;46702;48.370;10.794;2023-03-11T17:07:12;3.10;95.70
60868;DHT22;46702;48.370;10.794;2023-03-11T17:09:37;3.10;96.00
60868;DHT22;46702;48.370;10.794;2023-03-11T17:12:03;3.00;96.50
60868;DHT22;46702;48.370;10.794;2023-03-11T17:14:29;3.00;97.20
60868;DHT22;46702;48.370;10.794;2023-03-11T17:16:57;2.90;96.10
60868;DHT22;46702;48.370;10.794;2023-03-11T17:19:22;2.90;96.20
60868;DHT22;46702;48.370;10.794;2023-03-11T17:21:49;2.80;97.80